Time;durP1;ratioP1;P1;durP2;ratioP2;P2;SDS_P1;SDS_P2;PMS_P1;PMS_P2;Temp;Humidity;BMP_temperature;BMP_pressure;BME280_temperature;BME280_humidity;BME280_pressure;Samples;Min_cycle;Max_cycle;Signal;HPM_P1;HPM_P2
2023/11/13 00:02:07;;;;;;;21.40;15.70;;;;;;;;;;5054102;28;20025;-50
2023/11/13 00:04:33;;;;;;;24.27;17.15;;;;;;;;;;5053976;28;20048;-48
2023/11/13 00:06:59;;;;;;;22.50;16.33;;;;;;;;;;5054124;28;20021;-51
2023/11/13 00:09:25;;;;;;;22.65;16.42;;;;;;;;;;5053932;28;20043;-50
2023/11/13 00:11:51;;;;;;;19.08;15.75;;;;;;;;;;5052925;28;20017;-49
2023/11/13 00:14:17;;;;;;;23.50;16.60;;;;;;;;;;5053866;28;20454;-51
2023/11/13 00:16:43;;;;;;;21.95;16.75;;;;;;;;;;5053834;28;20099;-49
2023/11/13 00:19:09;;;;;;;20.75;16.27;;;;;;;;;;5049788;28;20068;-50
2023/11/13 00:21:35;;;;;;;19.35;14.48;;;;;;;;;;5039665;28;20099;-50
2023/11/13 00:24:02;;;;;;;19.77;15.70;;;;;;;;;;5053871;28;20039;-50
2023/11/13 00:26:28;;;;;;;22.42;15.82;;;;;;;;;;5053556;28;20028;-50
2023/11/13 00:28:54;;;;;;;25.58;16.23;;;;;;;;;;5053603;28;20410;-49
2023/11/13 00:31:21;;;;;;;19.80;15.48;;;;;;;;;;5053648;28;20047;-50
2023/11/13 00:33:48;;;;;;;20.95;14.85;;;;;;;;;;5053518;28;20115;-51
2023/11/13 00:36:14;;;;;;;18.25;14.13;;;;;;;;;;5053753;28;20025;-49
2023/11/13 00:38:40;;;;;;;21.30;15.02;;;;;;;;;;5039441;28;20085;-52
2023/11/13 00:41:12;;;;;;;17.98;14.52;;;;;;;;;;5053187;28;20022;-49
2023/11/13 00:43:39;;;;;;;18.42;14.75;;;;;;;;;;5052077;28;20017;-51
2023/11/13 00:46:06;;;;;;;17.08;14.15;;;;;;;;;;5053281;28;20020;-50
2023/11/13 00:48:32;;;;;;;19.45;14.35;;;;;;;;;;5052984;28;20076;-53
2023/11/13 00:50:58;;;;;;;18.45;14.48;;;;;;;;;;5053245;28;20028;-54
2023/11/13 00:53:24;;;;;;;19.23;13.65;;;;;;;;;;5053091;28;20027;-52
2023/11/13 00:55:51;;;;;;;20.27;14.43;;;;;;;;;;5053229;28;20013;-54
2023/11/13 00:58:17;;;;;;;18.60;13.93;;;;;;;;;;5053090;28;20021;-50
2023/11/13 01:00:43;;;;;;;16.92;13.35;;;;;;;;;;5051739;28;20020;-52
2023/11/13 01:03:09;;;;;;;17.73;13.85;;;;;;;;;;5052555;28;20344;-51
2023/11/13 01:05:35;;;;;;;18.13;14.02;;;;;;;;;;5049740;28;20056;-49
2023/11/13 01:08:03;;;;;;;18.83;13.68;;;;;;;;;;5042327;28;20086;-49
2023/11/13 01:10:29;;;;;;;16.98;12.82;;;;;;;;;;5052971;28;20390;-51
2023/11/13 01:12:55;;;;;;;20.52;13.82;;;;;;;;;;5052794;28;20021;-49
2023/11/13 01:15:22;;;;;;;18.20;13.23;;;;;;;;;;5039125;28;20040;-49
2023/11/13 01:17:48;;;;;;;18.50;13.25;;;;;;;;;;5052337;28;20467;-49
2023/11/13 01:20:14;;;;;;;17.33;13.70;;;;;;;;;;5044783;28;20155;-53
2023/11/13 01:22:41;;;;;;;17.92;12.75;;;;;;;;;;5046637;28;20029;-52
2023/11/13 01:25:07;;;;;;;16.77;13.13;;;;;;;;;;5038454;28;20021;-49
2023/11/13 01:27:33;;;;;;;18.85;14.18;;;;;;;;;;5052452;28;20102;-48
2023/11/13 01:29:59;;;;;;;17.77;13.13;;;;;;;;;;5052416;28;20029;-49
2023/11/13 01:32:25;;;;;;;17.23;13.50;;;;;;;;;;5052428;28;20027;-52
2023/11/13 01:34:51;;;;;;;19.60;14.27;;;;;;;;;;5052547;28;20204;-50
2023/11/13 01:37:18;;;;;;;17.13;13.18;;;;;;;;;;5052271;28;20029;-51
2023/11/13 01:39:44;;;;;;;16.20;13.50;;;;;;;;;;5052144;28;20063;-49
2023/11/13 01:42:10;;;;;;;18.75;13.60;;;;;;;;;;5052178;28;20045;-51
2023/11/13 01:44:36;;;;;;;19.15;13.93;;;;;;;;;;5039819;28;20041;-49
2023/11/13 01:47:03;;;;;;;17.98;14.15;;;;;;;;;;5050080;28;20048;-48
2023/11/13 01:49:29;;;;;;;18.85;13.93;;;;;;;;;;5044849;28;20454;-52
2023/11/13 01:51:55;;;;;;;16.13;13.35;;;;;;;;;;5051978;28;20025;-50
2023/11/13 01:54:23;;;;;;;16.73;13.65;;;;;;;;;;5047089;28;20190;-49
2023/11/13 01:56:49;;;;;;;18.02;13.43;;;;;;;;;;5036178;28;20036;-50
2023/11/13 01:59:15;;;;;;;17.95;14.25;;;;;;;;;;5042006;28;20418;-51
2023/11/13 02:01:42;;;;;;;21.75;16.10;;;;;;;;;;5034445;28;20025;-51
2023/11/13 02:04:08;;;;;;;20.17;15.20;;;;;;;;;;5050570;28;20116;-52
2023/11/13 02:06:34;;;;;;;21.13;16.73;;;;;;;;;;5051335;28;20017;-48
2023/11/13 02:09:00;;;;;;;22.52;17.77;;;;;;;;;;5031967;28;20044;-48
2023/11/13 02:11:26;;;;;;;23.08;17.23;;;;;;;;;;5031933;28;20025;-49
2023/11/13 02:14:14;;;;;;;24.40;18.38;;;;;;;;;;5049930;28;20037;-49
2023/11/13 02:16:40;;;;;;;22.67;17.80;;;;;;;;;;5050688;28;20031;-54
2023/11/13 02:19:07;;;;;;;22.85;17.88;;;;;;;;;;5050422;28;20017;-50
2023/11/13 02:21:33;;;;;;;24.85;17.83;;;;;;;;;;5051040;28;20028;-50
2023/11/13 02:24:01;;;;;;;24.85;18.45;;;;;;;;;;5047566;28;20027;-50
2023/11/13 02:26:28;;;;;;;21.85;16.67;;;;;;;;;;5031050;28;20422;-50
2023/11/13 02:28:53;;;;;;;21.75;17.02;;;;;;;;;;5043009;28;20021;-49
2023/11/13 02:31:19;;;;;;;22.90;17.83;;;;;;;;;;5046086;28;20394;-53
2023/11/13 02:33:45;;;;;;;22.52;16.30;;;;;;;;;;5056111;28;20029;-52
2023/11/13 02:36:11;;;;;;;22.60;16.52;;;;;;;;;;5053157;28;20499;-54
2023/11/13 02:38:37;;;;;;;21.70;17.30;;;;;;;;;;5054910;28;20494;-53
2023/11/13 02:41:04;;;;;;;19.70;16.38;;;;;;;;;;5049918;28;20139;-55
2023/11/13 02:43:29;;;;;;;23.02;17.83;;;;;;;;;;5046661;28;20063;-53
2023/11/13 02:45:55;;;;;;;22.48;17.17;;;;;;;;;;5050948;28;20052;-54
2023/11/13 02:48:21;;;;;;;21.08;17.42;;;;;;;;;;5053100;28;21780;-53
2023/11/13 02:50:48;;;;;;;22.20;16.90;;;;;;;;;;5051699;28;20037;-55
2023/11/13 02:53:23;;;;;;;23.17;17.38;;;;;;;;;;5055399;28;20021;-54
2023/11/13 02:55:51;;;;;;;23.60;16.85;;;;;;;;;;5055195;28;20049;-54
2023/11/13 02:58:17;;;;;;;21.42;16.35;;;;;;;;;;5054426;28;20055;-51
2023/11/13 03:00:43;;;;;;;21.08;15.20;;;;;;;;;;5042172;28;20025;-54
2023/11/13 03:03:09;;;;;;;22.05;16.42;;;;;;;;;;5042363;28;20057;-51
2023/11/13 03:05:35;;;;;;;24.67;17.27;;;;;;;;;;5054031;28;20415;-52
2023/11/13 03:08:01;;;;;;;24.10;16.77;;;;;;;;;;5054936;28;20025;-52
2023/11/13 03:10:32;;;;;;;19.98;16.50;;;;;;;;;;5052332;28;20057;-50
2023/11/13 03:12:59;;;;;;;20.67;15.25;;;;;;;;;;5050342;28;20131;-51
2023/11/13 03:15:25;;;;;;;21.83;17.25;;;;;;;;;;5050446;28;20377;-49
2023/11/13 03:17:51;;;;;;;22.42;16.63;;;;;;;;;;5047290;28;20017;-51
2023/11/13 03:20:17;;;;;;;25.35;18.08;;;;;;;;;;5034940;28;20021;-50
2023/11/13 03:22:43;;;;;;;21.45;17.27;;;;;;;;;;5040402;28;20024;-50
2023/11/13 03:25:11;;;;;;;24.70;18.45;;;;;;;;;;5053401;28;20017;-49
2023/11/13 03:27:37;;;;;;;20.73;16.98;;;;;;;;;;5054545;28;20013;-51
2023/11/13 03:30:03;;;;;;;23.10;17.15;;;;;;;;;;5054804;28;20032;-53
2023/11/13 03:32:30;;;;;;;22.08;16.70;;;;;;;;;;5054754;28;20021;-52
2023/11/13 03:34:56;;;;;;;25.83;18.58;;;;;;;;;;5054532;28;20047;-51
2023/11/13 03:37:23;;;;;;;19.35;16.40;;;;;;;;;;5054598;28;20033;-52
2023/11/13 03:39:55;;;;;;;21.33;16.15;;;;;;;;;;5054414;28;20020;-51
2023/11/13 03:42:21;;;;;;;20.27;15.32;;;;;;;;;;5054300;28;20045;-50
2023/11/13 03:44:47;;;;;;;17.25;14.50;;;;;;;;;;5040609;28;20074;-49
2023/11/13 03:47:13;;;;;;;18.25;14.10;;;;;;;;;;5052873;28;20028;-49
2023/11/13 03:49:39;;;;;;;16.98;13.05;;;;;;;;;;5054135;28;20457;-50
2023/11/13 03:52:06;;;;;;;14.98;12.90;;;;;;;;;;5054231;28;20042;-51
2023/11/13 03:54:32;;;;;;;17.27;12.82;;;;;;;;;;5040181;28;20505;-49
2023/11/13 03:56:58;;;;;;;18.05;12.27;;;;;;;;;;5054052;28;20013;-53
2023/11/13 03:59:24;;;;;;;14.93;12.82;;;;;;;;;;5054141;28;20021;-50
2023/11/13 04:01:50;;;;;;;14.05;12.48;;;;;;;;;;5054029;28;20377;-48
2023/11/13 04:04:16;;;;;;;20.77;12.48;;;;;;;;;;5054016;28;20021;-50
2023/11/13 04:06:42;;;;;;;17.17;11.88;;;;;;;;;;5053872;28;20124;-50
2023/11/13 04:09:08;;;;;;;14.07;12.38;;;;;;;;;;5054018;28;20036;-54
2023/11/13 04:11:34;;;;;;;13.98;12.02;;;;;;;;;;5053841;28;20061;-51
2023/11/13 04:14:01;;;;;;;17.13;12.45;;;;;;;;;;5053852;28;20374;-54
2023/11/13 04:16:27;;;;;;;13.63;12.20;;;;;;;;;;5053783;28;20025;-51
2023/11/13 04:18:53;;;;;;;15.40;12.82;;;26.70;99.90;;;;;;5053550;28;20017;-50
2023/11/13 04:21:18;;;;;;;15.23;12.55;;;26.20;99.90;;;;;;5053760;28;20398;-51
2023/11/13 04:23:44;;;;;;;17.55;13.27;;;26.20;99.90;;;;;;5053588;28;20078;-51
2023/11/13 04:26:10;;;;;;;17.42;13.02;;;26.10;99.90;;;;;;5053596;28;20029;-51
2023/11/13 04:28:35;;;;;;;13.70;11.68;;;26.10;99.90;;;;;;5053354;28;20036;-52
2023/11/13 04:31:02;;;;;;;15.45;12.75;;;26.10;99.90;;;;;;5053601;28;20032;-51
2023/11/13 04:33:27;;;;;;;14.10;12.52;;;26.20;99.90;;;;;;5053358;28;20037;-50
2023/11/13 04:35:54;;;;;;;14.60;12.90;;;26.10;99.90;;;;;;5053230;28;20103;-50
2023/11/13 04:38:20;;;;;;;18.73;13.57;;;26.10;99.90;;;;;;5053409;28;20020;-49
2023/11/13 04:40:45;;;;;;;16.80;13.43;;;26.20;99.90;;;;;;5053278;28;20107;-50
2023/11/13 04:43:12;;;;;;;19.00;14.85;;;26.10;99.90;;;;;;5051911;28;20055;-50
2023/11/13 04:45:39;;;;;;;20.70;16.02;;;26.10;99.90;;;;;;5053114;28;20024;-50
2023/11/13 04:48:05;;;;;;;21.10;15.88;;;26.10;99.90;;;;;;5053116;28;20040;-50
2023/11/13 04:50:31;;;;;;;18.98;14.60;;;26.20;99.90;;;;;;5053263;28;20083;-49
2023/11/13 04:52:56;;;;;;;23.20;16.77;;;26.20;99.90;;;;;;5052894;28;20029;-49
2023/11/13 04:55:22;;;;;;;23.35;17.92;;;26.10;99.90;;;;;;5053287;28;20146;-48
2023/11/13 04:57:47;;;;;;;23.63;17.00;;;26.10;99.90;;;;;;5052415;28;20021;-49
2023/11/13 05:00:13;;;;;;;20.17;16.65;;;26.10;99.90;;;;;;5052889;28;20025;-49
2023/11/13 05:02:41;;;;;;;24.02;17.40;;;26.10;99.90;;;;;;5053134;28;20017;-49
2023/11/13 05:05:08;;;;;;;22.75;18.25;;;26.10;99.90;;;;;;5052733;28;20024;-51
2023/11/13 05:07:36;;;;;;;24.67;18.67;;;26.10;99.90;;;;;;5052799;28;20127;-48
2023/11/13 05:10:03;;;;;;;24.10;17.83;;;26.10;99.90;;;;;;5052626;28;20132;-48
2023/11/13 05:12:29;;;;;;;22.05;17.20;;;26.10;99.90;;;;;;5052806;28;20025;-49
2023/11/13 05:14:55;;;;;;;25.30;16.67;;;26.10;99.90;;;;;;5052715;28;20032;-49
2023/11/13 05:17:21;;;;;;;21.65;16.95;;;26.10;99.90;;;;;;5052565;28;20040;-49
2023/11/13 05:19:47;;;;;;;21.30;17.25;;;26.20;99.90;;;;;;5052542;28;20021;-49
2023/11/13 05:22:13;;;;;;;27.05;18.42;;;26.10;99.90;;;;;;5052550;28;20031;-49
2023/11/13 05:24:39;;;;;;;22.95;17.63;;;26.10;99.90;;;;;;5052484;28;20021;-49
2023/11/13 05:27:05;;;;;;;21.77;17.35;;;26.10;99.90;;;;;;5052187;28;20025;-50
2023/11/13 05:29:31;;;;;;;21.92;17.40;;;26.10;99.90;;;;;;5052383;28;20037;-49
2023/11/13 05:31:56;;;;;;;25.10;18.73;;;26.10;99.90;;;;;;5052171;28;20025;-51
2023/11/13 05:34:24;;;;;;;23.42;17.90;;;26.10;99.90;;;;;;5038301;28;20442;-50
2023/11/13 05:36:50;;;;;;;21.90;17.90;;;26.20;99.90;;;;;;5050611;28;20356;-50
2023/11/13 05:39:16;;;;;;;27.85;19.48;;;26.20;99.90;;;;;;5043050;28;20078;-49
2023/11/13 05:41:41;;;;;;;25.13;18.90;;;26.20;99.90;;;;;;5052033;28;20057;-48
2023/11/13 05:44:07;;;;;;;24.58;18.35;;;26.20;99.90;;;;;;5050722;28;20078;-54
2023/11/13 05:46:33;;;;;;;26.08;19.20;;;26.20;99.90;;;;;;5052099;28;20031;-52
2023/11/13 05:48:59;;;;;;;25.10;19.38;;;26.20;99.90;;;;;;5052034;28;20468;-51
2023/11/13 05:51:25;;;;;;;22.98;18.48;;;26.10;99.90;;;;;;5044370;28;20030;-52
2023/11/13 05:53:50;;;;;;;22.05;18.02;;;26.20;99.90;;;;;;5044562;28;20071;-51
2023/11/13 05:56:16;;;;;;;23.90;18.08;;;26.10;99.90;;;;;;5051805;28;20028;-49
2023/11/13 05:58:42;;;;;;;24.75;17.95;;;26.20;99.90;;;;;;5052092;28;20134;-50
2023/11/13 06:01:08;;;;;;;24.83;18.35;;;26.20;99.90;;;;;;5050647;28;20182;-49
2023/11/13 06:03:33;;;;;;;25.55;18.88;;;26.30;99.90;;;;;;5051747;28;20031;-49
2023/11/13 06:05:59;;;;;;;24.17;18.23;;;26.30;99.90;;;;;;5051709;28;20037;-55
2023/11/13 06:08:25;;;;;;;25.08;18.23;;;26.30;99.90;;;;;;5049429;28;20060;-54
2023/11/13 06:11:09;;;;;;;24.40;18.88;;;26.30;99.90;;;;;;5039261;28;20033;-52
2023/11/13 06:13:35;;;;;;;22.13;17.53;;;26.30;99.90;;;;;;5051745;28;20025;-50
2023/11/13 06:16:02;;;;;;;25.50;18.13;;;26.30;99.90;;;;;;5051704;28;20021;-51
2023/11/13 06:18:28;;;;;;;20.98;16.98;;;26.30;99.90;;;;;;5051632;28;20021;-49
2023/11/13 06:20:53;;;;;;;23.00;17.58;;;26.30;99.90;;;;;;5051659;28;20013;-49
2023/11/13 06:23:19;;;;;;;25.08;17.55;;;26.30;99.90;;;;;;5051938;28;20027;-50
2023/11/13 06:25:44;;;;;;;23.20;17.70;;;26.30;99.90;;;;;;5051514;28;20501;-50
2023/11/13 06:28:10;;;;;;;22.80;17.95;;;26.40;99.90;;;;;;5040511;28;20028;-50
2023/11/13 06:30:36;;;;;;;25.35;18.65;;;26.40;99.90;;;;;;5048563;28;20055;-49
2023/11/13 06:33:02;;;;;;;21.63;16.35;;;26.40;99.90;;;;;;5051482;28;20506;-48
2023/11/13 06:35:28;;;;;;;27.15;17.20;;;26.30;99.90;;;;;;5051410;28;20116;-51
2023/11/13 06:37:54;;;;;;;20.67;15.68;;;26.40;99.90;;;;;;5051400;28;20025;-51
2023/11/13 06:40:19;;;;;;;22.20;17.50;;;26.30;99.90;;;;;;5051804;28;20060;-49
2023/11/13 06:42:46;;;;;;;20.85;16.42;;;26.40;99.90;;;;;;5051141;28;20055;-49
2023/11/13 06:45:12;;;;;;;19.15;16.38;;;26.30;99.90;;;;;;5051447;28;20024;-50
2023/11/13 06:47:40;;;;;;;22.58;16.02;;;26.30;99.90;;;;;;5051233;28;20548;-49
2023/11/13 06:50:06;;;;;;;21.55;15.70;;;26.40;99.90;;;;;;5051202;28;20032;-49
2023/11/13 06:52:32;;;;;;;20.08;16.23;;;26.40;99.90;;;;;;5048291;28;20075;-49
2023/11/13 06:54:58;;;;;;;18.58;15.05;;;26.40;99.90;;;;;;5039029;28;20126;-48
2023/11/13 06:57:25;;;;;;;20.00;14.50;;;26.40;99.90;;;;;;5049867;28;20032;-53
2023/11/13 06:59:52;;;;;;;21.02;15.32;;;26.30;99.90;;;;;;5050968;28;20479;-50
2023/11/13 07:02:21;;;;;;;18.02;14.90;;;26.30;99.90;;;;;;5051353;28;20028;-50
2023/11/13 07:04:47;;;;;;;17.55;15.13;;;26.30;99.90;;;;;;5051031;28;20021;-51
2023/11/13 07:07:12;;;;;;;24.70;15.75;;;26.40;99.90;;;;;;5042076;28;20028;-50
2023/11/13 07:09:39;;;;;;;19.45;15.23;;;26.40;99.90;;;;;;5044810;28;20132;-49
2023/11/13 07:12:07;;;;;;;20.83;15.43;;;26.40;99.90;;;;;;5050038;28;20471;-55
2023/11/13 07:14:33;;;;;;;24.15;15.95;;;26.40;99.90;;;;;;5051320;28;20029;-50
2023/11/13 07:16:59;;;;;;;17.90;13.60;;;26.40;99.90;;;;;;5050960;28;20033;-49
2023/11/13 07:19:25;;;;;;;21.75;16.08;;;26.40;99.90;;;;;;5051181;28;20106;-48
2023/11/13 07:21:51;;;;;;;18.65;14.07;;;26.40;99.90;;;;;;5052638;28;20021;-50
2023/11/13 07:24:16;;;;;;;19.73;14.75;;;26.40;99.90;;;;;;5054812;28;20032;-50
2023/11/13 07:26:42;;;;;;;21.77;15.05;;;26.40;99.90;;;;;;5053423;28;20025;-49
2023/11/13 07:29:08;;;;;;;26.73;16.70;;;26.40;99.90;;;;;;5054426;28;20108;-48
2023/11/13 07:31:33;;;;;;;25.65;17.17;;;26.30;99.90;;;;;;5052762;28;20017;-48
2023/11/13 07:33:59;;;;;;;25.58;15.52;;;26.40;99.90;;;;;;5049219;28;20474;-50
2023/11/13 07:36:25;;;;;;;24.17;15.73;;;26.40;99.90;;;;;;5045376;28;20029;-50
2023/11/13 07:38:50;;;;;;;23.27;16.52;;;26.40;99.90;;;;;;5046375;28;20032;-50
2023/11/13 07:41:16;;;;;;;23.35;16.70;;;26.50;99.90;;;;;;5044164;28;20463;-48
2023/11/13 07:43:44;;;;;;;27.25;16.98;;;26.50;99.90;;;;;;5042438;28;20029;-53
2023/11/13 07:46:11;;;;;;;24.13;16.13;;;26.50;99.90;;;;;;5039113;28;20036;-51
2023/11/13 07:48:38;;;;;;;21.40;17.05;;;26.50;99.90;;;;;;5040925;28;20403;-52
2023/11/13 07:51:05;;;;;;;22.73;17.00;;;26.50;99.90;;;;;;5046402;28;20549;-53
2023/11/13 07:53:38;;;;;;;24.27;16.95;;;26.50;99.90;;;;;;5042957;28;20025;-54
2023/11/13 07:56:04;;;;;;;21.95;16.73;;;26.50;99.90;;;;;;5050063;28;20040;-49
2023/11/13 07:58:30;;;;;;;20.60;16.90;;;26.50;99.90;;;;;;5050447;28;20040;-55
2023/11/13 08:00:57;;;;;;;23.05;17.58;;;26.50;99.90;;;;;;5046179;28;20108;-50
2023/11/13 08:03:24;;;;;;;25.13;18.02;;;26.60;99.90;;;;;;5049899;28;20057;-52
2023/11/13 08:05:50;;;;;;;19.80;17.33;;;26.60;99.90;;;;;;5049460;28;20184;-52
2023/11/13 08:08:16;;;;;;;23.58;17.23;;;26.60;99.90;;;;;;5047386;28;20103;-53
2023/11/13 08:10:46;;;;;;;22.27;17.80;;;26.60;99.90;;;;;;5046113;28;20034;-52
2023/11/13 08:13:16;;;;;;;23.95;18.13;;;26.60;99.90;;;;;;5047537;28;20036;-50
2023/11/13 08:15:44;;;;;;;27.08;17.90;;;26.70;99.90;;;;;;5050101;28;20147;-65
2023/11/13 08:18:15;;;;;;;24.80;17.40;;;26.70;99.90;;;;;;5046219;28;20032;-63
2023/11/13 08:20:42;;;;;;;24.83;18.15;;;26.50;99.90;;;;;;5043706;28;20378;-59
2023/11/13 08:23:10;;;;;;;27.85;18.58;;;26.60;99.90;;;;;;5053822;28;20017;-60
2023/11/13 08:25:38;;;;;;;22.15;18.92;;;26.70;99.90;;;;;;5052290;28;20078;-59
2023/11/13 08:28:04;;;;;;;28.92;20.60;;;26.70;99.90;;;;;;5053636;28;20180;-62
2023/11/13 08:30:30;;;;;;;25.73;20.20;;;26.70;99.90;;;;;;5053746;28;20411;-59
2023/11/13 08:32:56;;;;;;;33.55;20.10;;;26.70;99.90;;;;;;5051275;28;20081;-58
2023/11/13 08:35:21;;;;;;;25.17;20.67;;;26.80;99.90;;;;;;5049510;28;20435;-58
2023/11/13 08:37:47;;;;;;;26.10;20.67;;;26.80;99.90;;;;;;5051985;28;20021;-60
2023/11/13 08:40:17;;;;;;;28.63;22.52;;;26.80;99.90;;;;;;5053373;28;20079;-60
2023/11/13 08:42:43;;;;;;;29.33;21.67;;;26.80;99.90;;;;;;5053151;28;20110;-58
2023/11/13 08:45:15;;;;;;;28.25;20.80;;;26.80;99.90;;;;;;5052970;28;20028;-57
2023/11/13 08:47:48;;;;;;;30.65;22.40;;;26.90;99.90;;;;;;5053430;28;20484;-62
2023/11/13 08:50:15;;;;;;;29.95;21.58;;;26.90;99.90;;;;;;5052964;28;20033;-61
2023/11/13 08:52:42;;;;;;;32.10;22.08;;;26.90;99.90;;;;;;5051561;28;20024;-62
2023/11/13 08:55:11;;;;;;;32.30;21.83;;;26.90;99.90;;;;;;5038843;28;20112;-63
2023/11/13 08:57:41;;;;;;;28.75;21.92;;;27.00;99.90;;;;;;5051673;28;20025;-64
2023/11/13 09:00:24;;;;;;;33.75;22.88;;;27.00;99.90;;;;;;5042759;28;20022;-71
2023/11/13 09:02:54;;;;;;;34.80;21.98;;;;;;;;;;5040774;28;20017;-62
2023/11/13 09:05:20;;;;;;;30.15;22.00;;;;;;;;;;5052728;28;20025;-55
2023/11/13 09:07:46;;;;;;;30.05;23.08;;;;;;;;;;5051279;28;20401;-60
2023/11/13 09:10:16;;;;;;;33.75;21.27;;;;;;;;;;5052605;28;20486;-59
2023/11/13 09:12:43;;;;;;;28.88;22.23;;;;;;;;;;5052604;28;20017;-61
2023/11/13 09:15:15;;;;;;;32.83;22.85;;;;;;;;;;5052837;28;20021;-64
2023/11/13 09:17:45;;;;;;;30.60;23.17;;;;;;;;;;5052678;28;20025;-55
2023/11/13 09:20:15;;;;;;;31.70;23.20;;;;;;;;;;5052846;28;20028;-51
2023/11/13 09:22:41;;;;;;;27.90;22.73;;;;;;;;;;5052520;28;20062;-56
2023/11/13 09:25:07;;;;;;;31.52;23.67;;;;;;;;;;5043520;28;20024;-57
2023/11/13 09:27:33;;;;;;;29.85;24.20;;;;;;;;;;5044671;28;20029;-55
2023/11/13 09:29:59;;;;;;;29.23;23.67;;;;;;;;;;5039251;28;20025;-55
2023/11/13 09:32:25;;;;;;;29.92;23.85;;;;;;;;;;5051849;28;20474;-61
2023/11/13 09:34:54;;;;;;;31.80;24.38;;;;;;;;;;5039399;28;20025;-59
2023/11/13 09:37:21;;;;;;;31.70;23.40;;;;;;;;;;5040995;28;20047;-61
2023/11/13 09:39:49;;;;;;;32.13;23.30;;;;;;;;;;5050681;28;20035;-60
2023/11/13 09:42:18;;;;;;;28.35;24.20;;;;;;;;;;5050079;28;20114;-61
2023/11/13 09:44:48;;;;;;;29.02;24.27;;;;;;;;;;5052366;28;20021;-63
2023/11/13 09:47:17;;;;;;;31.63;24.58;;;;;;;;;;5046998;28;20017;-63
2023/11/13 09:49:50;;;;;;;34.03;24.33;;;;;;;;;;5047497;28;20127;-60
2023/11/13 09:52:18;;;;;;;30.08;24.38;;;;;;;;;;5052663;28;20052;-58
2023/11/13 09:54:45;;;;;;;32.90;24.23;;;;;;;;;;5050546;28;20078;-68
2023/11/13 09:57:13;;;;;;;28.17;23.70;;;;;;;;;;5051702;28;20076;-64
2023/11/13 09:59:39;;;;;;;37.67;27.15;;;;;;;;;;5051732;28;20123;-68
2023/11/13 10:02:09;;;;;;;30.75;24.67;;;;;;;;;;5051941;28;20064;-67
2023/11/13 10:04:35;;;;;;;27.80;22.52;;;;;;;;;;5036199;28;20052;-61
2023/11/13 10:07:02;;;;;;;30.15;22.60;;;;;;;;;;5045276;28;20067;-58
2023/11/13 10:09:30;;;;;;;29.98;24.17;;;;;;;;;;5050277;28;20040;-56
2023/11/13 10:11:57;;;;;;;27.92;22.35;;;;;;;;;;5051819;28;20033;-61
2023/11/13 10:14:25;;;;;;;28.35;23.45;;;;;;;;;;5050271;28;20313;-62
2023/11/13 10:16:56;;;;;;;30.80;22.88;;;;;;;;;;5051738;28;20108;-62
2023/11/13 10:19:34;;;;;;;34.35;24.48;;;;;;;;;;5050234;28;20025;-60
2023/11/13 10:22:00;;;;;;;32.30;22.92;;;;;;;;;;5051415;28;20021;-64
2023/11/13 10:24:27;;;;;;;28.88;23.13;;;;;;;;;;5050259;28;20097;-61
2023/11/13 10:26:57;;;;;;;34.38;24.83;;;;;;;;;;5051440;28;20021;-60
2023/11/13 10:29:30;;;;;;;31.48;22.92;;;;;;;;;;5051424;28;20061;-60
2023/11/13 10:31:56;;;;;;;34.17;25.48;;;;;;;;;;5051341;28;20107;-61
2023/11/13 10:34:22;;;;;;;33.10;25.25;;;;;;;;;;5051381;28;20036;-58
2023/11/13 10:37:10;;;;;;;30.60;24.67;;;;;;;;;;5051287;28;20021;-62
2023/11/13 10:39:37;;;;;;;32.22;24.45;;;;;;;;;;5038344;28;20432;-57
2023/11/13 10:42:22;;;;;;;32.15;24.08;;;;;;;;;;5051081;28;20052;-53
2023/11/13 10:44:50;;;;;;;34.55;25.23;;;;;;;;;;5051356;28;20139;-56
2023/11/13 10:47:20;;;;;;;33.47;26.60;;;;;;;;;;5050966;28;20470;-58
2023/11/13 10:49:50;;;;;;;32.92;25.98;;;;;;;;;;5051401;28;20041;-59
2023/11/13 10:52:23;;;;;;;30.67;24.75;;;;;;;;;;5051114;28;20048;-61
2023/11/13 10:54:50;;;;;;;28.52;23.35;;;;;;;;;;5051442;28;20021;-61
2023/11/13 10:57:17;;;;;;;33.67;24.48;;;;;;;;;;5035934;28;20057;-61
2023/11/13 10:59:47;;;;;;;28.80;23.33;;;;;;;;;;5050474;28;20017;-54
2023/11/13 11:02:26;;;;;;;27.73;23.33;;;;;;;;;;5050999;28;20025;-60
2023/11/13 11:04:58;;;;;;;30.02;23.67;;;;;;;;;;5046832;28;20040;-60
2023/11/13 11:07:26;;;;;;;26.05;23.25;;;;;;;;;;5054984;28;20390;-63
2023/11/13 11:09:56;;;;;;;28.67;24.15;;;;;;;;;;5053568;28;20140;-62
2023/11/13 11:12:23;;;;;;;29.13;23.95;;;;;;;;;;5055123;28;20017;-61
2023/11/13 11:14:57;;;;;;;28.52;23.23;;;;;;;;;;5054994;28;20029;-60
2023/11/13 11:17:25;;;;;;;;;;;;;;;;;;5046221;28;20070;-63
2023/11/13 11:19:53;;;;;;;30.55;23.48;;;;;;;;;;5055983;28;19904;-75
2023/11/13 11:22:28;;;;;;;26.90;22.33;;;;;;;;;;5053617;28;20021;-65
2023/11/13 11:24:56;;;;;;;;;;;;;;;;;;5054125;28;20021;-65
2023/11/13 11:27:40;;;;;;;28.02;22.30;;;;;;;;;;5054647;28;19912;-62
2023/11/13 11:30:18;;;;;;;27.30;22.15;;;;;;;;;;5044984;28;20028;-64
2023/11/13 11:32:55;;;;;;;30.40;23.77;;;;;;;;;;5051962;28;20386;-66
2023/11/13 11:35:21;;;;;;;30.10;23.40;;;;;;;;;;5054461;28;20021;-67
2023/11/13 11:38:06;;;;;;;26.35;23.50;;;;;;;;;;5054694;28;20024;-63
2023/11/13 11:40:34;;;;;;;26.40;22.63;;;;;;;;;;5054118;28;20239;-70
2023/11/13 11:43:02;;;;;;;29.95;25.73;;;;;;;;;;5053089;28;20045;-71
2023/11/13 11:45:28;;;;;;;27.45;22.95;;;;;;;;;;5054481;28;20028;-72
2023/11/13 11:47:54;;;;;;;29.08;24.08;;;;;;;;;;5054601;28;20029;-66
2023/11/13 11:50:20;;;;;;;32.85;24.50;;;;;;;;;;5054169;28;20029;-71
2023/11/13 11:52:52;;;;;;;29.20;24.08;;;;;;;;;;5054367;28;20364;-73
2023/11/13 11:55:20;;;;;;;31.38;23.95;;;;;;;;;;5054493;28;20067;-68
2023/11/13 11:57:46;;;;;;;30.20;23.85;;;;;;;;;;5054163;28;20016;-59
2023/11/13 12:00:20;;;;;;;28.00;23.83;;;;;;;;;;5054191;28;20147;-55
2023/11/13 12:02:56;;;;;;;26.97;23.10;;;;;;;;;;5051309;28;20021;-54
2023/11/13 12:05:22;;;;;;;30.30;24.40;;;;;;;;;;5048301;28;20326;-57
2023/11/13 12:07:52;;;;;;;31.40;25.50;;;;;;;;;;5049455;28;20052;-56
2023/11/13 12:10:21;;;;;;;26.98;24.10;;;;;;;;;;5050267;28;20045;-67
2023/11/13 12:12:48;;;;;;;29.10;24.92;;;;;;;;;;5050725;28;20013;-59
2023/11/13 12:15:14;;;;;;;32.72;25.73;;;;;;;;;;5052851;28;20029;-63
2023/11/13 12:17:41;;;;;;;31.42;25.20;;;;;;;;;;5051081;28;20017;-61
2023/11/13 12:20:09;;;;;;;30.75;25.15;;;;;;;;;;5035832;28;20102;-61
2023/11/13 12:22:35;;;;;;;29.58;25.73;;;;;;;;;;5042507;28;20021;-61
2023/11/13 12:25:05;;;;;;;31.17;25.55;;;;;;;;;;5054329;28;20021;-61
2023/11/13 12:27:31;;;;;;;37.00;26.65;;;;;;;;;;5053798;28;20044;-61
2023/11/13 12:30:04;;;;;;;35.85;27.52;;;;;;;;;;5052171;28;20109;-61
2023/11/13 12:32:30;;;;;;;37.88;28.23;;;;;;;;;;5038419;28;20033;-61
2023/11/13 12:34:58;;;;;;;34.67;27.55;;;;;;;;;;5048611;28;20091;-61
2023/11/13 12:37:24;;;;;;;33.42;27.05;;;;;;;;;;5037763;28;20545;-61
2023/11/13 12:39:50;;;;;;;38.55;27.65;;;;;;;;;;5053530;28;20421;-61
2023/11/13 12:42:16;;;;;;;33.97;28.05;;;;;;;;;;5052937;28;20129;-61
2023/11/13 12:44:43;;;;;;;33.92;27.17;;;;;;;;;;5050294;28;20102;-61
2023/11/13 12:47:10;;;;;;;35.28;27.17;;;;;;;;;;5052844;28;20017;-61
2023/11/13 12:49:36;;;;;;;32.33;25.40;;;;;;;;;;5053205;28;20391;-61
2023/11/13 12:52:06;;;;;;;31.67;27.30;;;;;;;;;;5053112;28;20490;-72
2023/11/13 12:54:34;;;;;;;31.13;27.67;;;;;;;;;;5052959;28;20031;-68
2023/11/13 12:57:02;;;;;;;30.52;26.75;;;;;;;;;;5040353;28;20390;-65
2023/11/13 12:59:28;;;;;;;30.75;26.20;;;;;;;;;;5050619;28;20128;-64
2023/11/13 13:01:54;;;;;;;34.13;27.58;;;;;;;;;;5051661;28;20446;-67
2023/11/13 13:04:20;;;;;;;33.03;26.63;;;;;;;;;;5052930;28;20029;-70
2023/11/13 13:06:48;;;;;;;34.90;26.25;;;;;;;;;;5047829;28;20488;-70
2023/11/13 13:09:15;;;;;;;41.20;26.30;;;;;;;;;;5052487;28;20029;-69
2023/11/13 13:11:44;;;;;;;33.80;26.60;;;;;;;;;;5051381;28;20036;-65
2023/11/13 13:14:17;;;;;;;34.95;27.17;;;;;;;;;;5040151;28;20029;-66
2023/11/13 13:16:43;;;;;;;33.88;24.85;;;;;;;;;;5052286;28;20029;-68
2023/11/13 13:19:10;;;;;;;33.92;25.13;;;;;;;;;;5052342;28;20103;-61
2023/11/13 13:21:36;;;;;;;36.90;25.05;;;;;;;;;;5051373;28;20112;-60
2023/11/13 13:24:06;;;;;;;35.47;25.55;;;;;;;;;;5052831;28;20466;-60
2023/11/13 13:26:32;;;;;;;28.58;23.75;;;;;;;;;;5051324;28;20441;-62
2023/11/13 13:28:58;;;;;;;30.23;23.58;;;;;;;;;;5043976;28;20067;-60
2023/11/13 13:31:24;;;;;;;25.02;22.30;;;;;;;;;;5051102;28;20036;-60
2023/11/13 13:33:51;;;;;;;28.92;23.98;;;;;;;;;;5049083;28;20463;-60
2023/11/13 13:36:19;;;;;;;34.67;23.63;;;;;;;;;;5052263;28;20458;-61
2023/11/13 13:38:46;;;;;;;28.77;23.17;;;;;;;;;;5049007;28;20021;-60